sensor_id;sensor_type;location;lat;lon;timestamp;pressure;altitude;pressure_sealevel;temperature;humidity
81835;BME280;71272;52.166;4.498;2023-08-12T00:00:40;101785.31;;;18.71;96.71
81835;BME280;71272;52.166;4.498;2023-08-12T00:03:06;101788.97;;;18.72;96.73
81835;BME280;71272;52.166;4.498;2023-08-12T00:05:31;101775.25;;;18.67;97.17
81835;BME280;71272;52.166;4.498;2023-08-12T00:07:57;101784.66;;;18.63;96.96
81835;BME280;71272;52.166;4.498;2023-08-12T00:10:22;101785.38;;;18.68;97.65
81835;BME280;71272;52.166;4.498;2023-08-12T00:12:48;101777.72;;;18.64;97.60
81835;BME280;71272;52.166;4.498;2023-08-12T00:15:13;101780.06;;;18.70;97.69
81835;BME280;71272;52.166;4.498;2023-08-12T00:17:39;101783.22;;;18.75;97.65
81835;BME280;71272;52.166;4.498;2023-08-12T00:20:06;101779.94;;;18.77;97.75
81835;BME280;71272;52.166;4.498;2023-08-12T00:22:34;101782.78;;;18.77;97.46
81835;BME280;71272;52.166;4.498;2023-08-12T00:25:00;101766.97;;;18.76;97.63
81835;BME280;71272;52.166;4.498;2023-08-12T00:27:25;101765.06;;;18.69;97.79
81835;BME280;71272;52.166;4.498;2023-08-12T00:29:51;101758.13;;;18.70;98.15
81835;BME280;71272;52.166;4.498;2023-08-12T00:32:18;101764.25;;;18.69;97.72
81835;BME280;71272;52.166;4.498;2023-08-12T00:34:43;101758.34;;;18.59;98.25
81835;BME280;71272;52.166;4.498;2023-08-12T00:37:09;101759.91;;;18.64;98.51
81835;BME280;71272;52.166;4.498;2023-08-12T00:39:35;101760.78;;;18.61;98.56
81835;BME280;71272;52.166;4.498;2023-08-12T00:42:03;101749.91;;;18.56;98.73
81835;BME280;71272;52.166;4.498;2023-08-12T00:44:28;101761.56;;;18.61;98.82
81835;BME280;71272;52.166;4.498;2023-08-12T00:46:54;101736.41;;;18.60;98.61
81835;BME280;71272;52.166;4.498;2023-08-12T00:49:21;101743.63;;;18.64;98.87
81835;BME280;71272;52.166;4.498;2023-08-12T00:51:49;101740.81;;;18.64;98.79
81835;BME280;71272;52.166;4.498;2023-08-12T00:54:16;101734.59;;;18.70;98.74
81835;BME280;71272;52.166;4.498;2023-08-12T00:56:43;101752.91;;;18.89;98.17
81835;BME280;71272;52.166;4.498;2023-08-12T00:59:09;101736.19;;;18.74;98.13
81835;BME280;71272;52.166;4.498;2023-08-12T01:01:38;101745.31;;;18.82;98.25
81835;BME280;71272;52.166;4.498;2023-08-12T01:04:06;101734.13;;;18.75;98.45
81835;BME280;71272;52.166;4.498;2023-08-12T01:06:31;101735.31;;;18.74;98.44
81835;BME280;71272;52.166;4.498;2023-08-12T01:08:57;101728.84;;;18.73;98.27
81835;BME280;71272;52.166;4.498;2023-08-12T01:11:35;101740.53;;;18.79;98.51
81835;BME280;71272;52.166;4.498;2023-08-12T01:14:12;101738.75;;;18.85;98.65
81835;BME280;71272;52.166;4.498;2023-08-12T01:16:41;101738.34;;;18.87;98.63
81835;BME280;71272;52.166;4.498;2023-08-12T01:19:11;101741.53;;;18.89;98.43
81835;BME280;71272;52.166;4.498;2023-08-12T01:21:41;101738.25;;;18.90;98.39
81835;BME280;71272;52.166;4.498;2023-08-12T01:24:08;101731.34;;;18.91;98.08
81835;BME280;71272;52.166;4.498;2023-08-12T01:26:36;101732.50;;;18.94;98.47
81835;BME280;71272;52.166;4.498;2023-08-12T01:29:02;101705.81;;;18.88;98.21
81835;BME280;71272;52.166;4.498;2023-08-12T01:31:43;101699.84;;;18.82;98.54
81835;BME280;71272;52.166;4.498;2023-08-12T01:36:37;101705.19;;;18.80;98.43
81835;BME280;71272;52.166;4.498;2023-08-12T01:39:06;101705.25;;;18.76;98.53
81835;BME280;71272;52.166;4.498;2023-08-12T01:41:36;101701.03;;;18.64;99.20
81835;BME280;71272;52.166;4.498;2023-08-12T01:44:03;101702.63;;;18.66;98.92
81835;BME280;71272;52.166;4.498;2023-08-12T01:46:30;101706.63;;;18.68;99.02
81835;BME280;71272;52.166;4.498;2023-08-12T01:48:56;101698.88;;;18.69;99.03
81835;BME280;71272;52.166;4.498;2023-08-12T01:51:21;101696.06;;;18.69;99.10
81835;BME280;71272;52.166;4.498;2023-08-12T01:53:47;101701.22;;;18.74;98.70
81835;BME280;71272;52.166;4.498;2023-08-12T01:56:12;101706.00;;;18.80;98.45
81835;BME280;71272;52.166;4.498;2023-08-12T01:58:38;101689.00;;;18.77;98.57
81835;BME280;71272;52.166;4.498;2023-08-12T02:01:03;101696.22;;;18.81;98.85
81835;BME280;71272;52.166;4.498;2023-08-12T02:03:29;101696.59;;;18.83;98.33
81835;BME280;71272;52.166;4.498;2023-08-12T02:08:20;101690.16;;;18.79;98.59
81835;BME280;71272;52.166;4.498;2023-08-12T02:13:11;101682.88;;;18.78;98.61
81835;BME280;71272;52.166;4.498;2023-08-12T02:15:36;101678.81;;;18.79;98.59
81835;BME280;71272;52.166;4.498;2023-08-12T02:18:05;101659.84;;;18.73;99.04
81835;BME280;71272;52.166;4.498;2023-08-12T02:20:31;101668.31;;;18.76;99.11
81835;BME280;71272;52.166;4.498;2023-08-12T02:22:56;101671.94;;;18.77;99.15
81835;BME280;71272;52.166;4.498;2023-08-12T02:25:23;101661.44;;;18.74;98.99
81835;BME280;71272;52.166;4.498;2023-08-12T02:27:48;101667.88;;;18.78;99.04
81835;BME280;71272;52.166;4.498;2023-08-12T02:30:16;101655.13;;;18.66;99.70
81835;BME280;71272;52.166;4.498;2023-08-12T02:32:42;101649.59;;;18.59;99.90
81835;BME280;71272;52.166;4.498;2023-08-12T02:35:09;101663.28;;;18.64;100.00
81835;BME280;71272;52.166;4.498;2023-08-12T02:37:34;101662.66;;;18.56;100.00
81835;BME280;71272;52.166;4.498;2023-08-12T02:40:04;101649.84;;;18.48;100.00
81835;BME280;71272;52.166;4.498;2023-08-12T02:42:32;101664.03;;;18.48;100.00
81835;BME280;71272;52.166;4.498;2023-08-12T02:45:18;101672.69;;;18.41;100.00
81835;BME280;71272;52.166;4.498;2023-08-12T02:47:53;101665.50;;;18.36;100.00
81835;BME280;71272;52.166;4.498;2023-08-12T02:50:18;101650.00;;;18.21;100.00
81835;BME280;71272;52.166;4.498;2023-08-12T02:52:44;101641.97;;;18.16;100.00
81835;BME280;71272;52.166;4.498;2023-08-12T02:55:09;101651.28;;;18.16;100.00
81835;BME280;71272;52.166;4.498;2023-08-12T02:57:35;101654.09;;;18.20;100.00
81835;BME280;71272;52.166;4.498;2023-08-12T03:00:00;101642.94;;;18.09;100.00
81835;BME280;71272;52.166;4.498;2023-08-12T03:02:26;101654.59;;;18.15;100.00
81835;BME280;71272;52.166;4.498;2023-08-12T03:04:56;101639.31;;;18.09;100.00
81835;BME280;71272;52.166;4.498;2023-08-12T03:07:22;101635.22;;;18.10;100.00
81835;BME280;71272;52.166;4.498;2023-08-12T03:09:48;101633.31;;;18.03;100.00
81835;BME280;71272;52.166;4.498;2023-08-12T03:12:13;101642.44;;;18.14;100.00
81835;BME280;71272;52.166;4.498;2023-08-12T03:14:39;101627.88;;;18.12;100.00
81835;BME280;71272;52.166;4.498;2023-08-12T03:17:04;101625.41;;;18.14;100.00
81835;BME280;71272;52.166;4.498;2023-08-12T03:19:30;101613.75;;;18.09;100.00
81835;BME280;71272;52.166;4.498;2023-08-12T03:21:55;101639.44;;;18.22;100.00
81835;BME280;71272;52.166;4.498;2023-08-12T03:24:24;101621.75;;;18.14;100.00
81835;BME280;71272;52.166;4.498;2023-08-12T03:26:49;101621.69;;;18.17;100.00
81835;BME280;71272;52.166;4.498;2023-08-12T03:29:15;101624.53;;;18.17;100.00
81835;BME280;71272;52.166;4.498;2023-08-12T03:31:40;101617.47;;;18.26;100.00
81835;BME280;71272;52.166;4.498;2023-08-12T03:34:05;101606.38;;;18.11;100.00
81835;BME280;71272;52.166;4.498;2023-08-12T03:36:31;101597.88;;;18.11;100.00
81835;BME280;71272;52.166;4.498;2023-08-12T03:38:56;101605.00;;;18.19;100.00
81835;BME280;71272;52.166;4.498;2023-08-12T03:41:22;101600.47;;;18.22;100.00
81835;BME280;71272;52.166;4.498;2023-08-12T03:43:47;101607.28;;;18.28;100.00
81835;BME280;71272;52.166;4.498;2023-08-12T03:46:12;101602.81;;;18.27;100.00
81835;BME280;71272;52.166;4.498;2023-08-12T03:48:38;101582.22;;;18.23;100.00
81835;BME280;71272;52.166;4.498;2023-08-12T03:51:11;101581.84;;;18.21;100.00
81835;BME280;71272;52.166;4.498;2023-08-12T03:53:37;101579.38;;;18.23;100.00
81835;BME280;71272;52.166;4.498;2023-08-12T03:56:02;101587.03;;;18.26;100.00
81835;BME280;71272;52.166;4.498;2023-08-12T03:58:28;101588.09;;;18.32;100.00
81835;BME280;71272;52.166;4.498;2023-08-12T04:00:53;101580.09;;;18.27;100.00
81835;BME280;71272;52.166;4.498;2023-08-12T04:03:19;101579.59;;;18.32;100.00
81835;BME280;71272;52.166;4.498;2023-08-12T04:05:49;101595.59;;;18.42;100.00
81835;BME280;71272;52.166;4.498;2023-08-12T04:08:15;101581.75;;;18.45;100.00
81835;BME280;71272;52.166;4.498;2023-08-12T04:10:44;101557.94;;;18.38;100.00
81835;BME280;71272;52.166;4.498;2023-08-12T04:13:10;101551.09;;;18.36;100.00
81835;BME280;71272;52.166;4.498;2023-08-12T04:15:35;101559.97;;;18.38;100.00
81835;BME280;71272;52.166;4.498;2023-08-12T04:18:00;101561.59;;;18.39;100.00
81835;BME280;71272;52.166;4.498;2023-08-12T04:20:26;101565.16;;;18.43;100.00
81835;BME280;71272;52.166;4.498;2023-08-12T04:22:51;101561.06;;;18.44;100.00
81835;BME280;71272;52.166;4.498;2023-08-12T04:25:18;101549.78;;;18.40;100.00
81835;BME280;71272;52.166;4.498;2023-08-12T04:27:46;101556.63;;;18.43;100.00
81835;BME280;71272;52.166;4.498;2023-08-12T04:30:13;101551.41;;;18.41;100.00
81835;BME280;71272;52.166;4.498;2023-08-12T04:32:39;101553.88;;;18.39;100.00
81835;BME280;71272;52.166;4.498;2023-08-12T04:35:05;101550.06;;;18.46;100.00
81835;BME280;71272;52.166;4.498;2023-08-12T04:37:30;101560.91;;;18.51;100.00
81835;BME280;71272;52.166;4.498;2023-08-12T04:39:57;101539.69;;;18.39;100.00
81835;BME280;71272;52.166;4.498;2023-08-12T04:42:23;101547.50;;;18.52;100.00
81835;BME280;71272;52.166;4.498;2023-08-12T04:44:48;101559.13;;;18.57;100.00
81835;BME280;71272;52.166;4.498;2023-08-12T04:47:14;101552.22;;;18.58;100.00
81835;BME280;71272;52.166;4.498;2023-08-12T04:49:39;101551.44;;;18.58;100.00
81835;BME280;71272;52.166;4.498;2023-08-12T04:52:07;101549.00;;;18.56;100.00
81835;BME280;71272;52.166;4.498;2023-08-12T04:54:33;101533.22;;;18.55;100.00
81835;BME280;71272;52.166;4.498;2023-08-12T04:56:59;101534.66;;;18.63;100.00
81835;BME280;71272;52.166;4.498;2023-08-12T04:59:25;101516.63;;;18.54;100.00
81835;BME280;71272;52.166;4.498;2023-08-12T05:01:51;101523.81;;;18.58;100.00
81835;BME280;71272;52.166;4.498;2023-08-12T05:04:17;101524.25;;;18.73;100.00
81835;BME280;71272;52.166;4.498;2023-08-12T05:06:43;101521.00;;;18.75;100.00
81835;BME280;71272;52.166;4.498;2023-08-12T05:09:08;101520.91;;;18.78;100.00
81835;BME280;71272;52.166;4.498;2023-08-12T05:13:59;101525.72;;;18.81;100.00
81835;BME280;71272;52.166;4.498;2023-08-12T05:16:25;101519.22;;;18.81;100.00
81835;BME280;71272;52.166;4.498;2023-08-12T05:18:51;101525.81;;;18.78;100.00
81835;BME280;71272;52.166;4.498;2023-08-12T05:21:16;101523.41;;;18.76;100.00
81835;BME280;71272;52.166;4.498;2023-08-12T05:23:41;101520.91;;;18.78;100.00
81835;BME280;71272;52.166;4.498;2023-08-12T05:26:08;101536.28;;;18.81;100.00
81835;BME280;71272;52.166;4.498;2023-08-12T05:28:33;101535.56;;;18.77;100.00
81835;BME280;71272;52.166;4.498;2023-08-12T05:31:02;101531.91;;;18.76;100.00
81835;BME280;71272;52.166;4.498;2023-08-12T05:33:28;101522.66;;;18.72;100.00
81835;BME280;71272;52.166;4.498;2023-08-12T05:35:55;101538.84;;;18.75;100.00
81835;BME280;71272;52.166;4.498;2023-08-12T05:38:21;101545.81;;;18.71;100.00
81835;BME280;71272;52.166;4.498;2023-08-12T05:40:46;101527.44;;;18.59;100.00
81835;BME280;71272;52.166;4.498;2023-08-12T05:43:14;101538.56;;;18.70;100.00
81835;BME280;71272;52.166;4.498;2023-08-12T05:45:42;101536.25;;;18.64;100.00
81835;BME280;71272;52.166;4.498;2023-08-12T05:48:08;101523.09;;;18.54;100.00
81835;BME280;71272;52.166;4.498;2023-08-12T05:50:33;101519.88;;;18.52;100.00
81835;BME280;71272;52.166;4.498;2023-08-12T05:56:20;101532.59;;;18.48;100.00
81835;BME280;71272;52.166;4.498;2023-08-12T05:58:49;101533.81;;;18.47;100.00
81835;BME280;71272;52.166;4.498;2023-08-12T06:01:14;101528.59;;;18.45;100.00
81835;BME280;71272;52.166;4.498;2023-08-12T06:03:40;101526.91;;;18.48;100.00
81835;BME280;71272;52.166;4.498;2023-08-12T06:06:05;101535.44;;;18.48;100.00
81835;BME280;71272;52.166;4.498;2023-08-12T06:08:30;101534.63;;;18.47;100.00
81835;BME280;71272;52.166;4.498;2023-08-12T06:10:56;101518.13;;;18.42;100.00
81835;BME280;71272;52.166;4.498;2023-08-12T06:13:22;72668.78;;;-148.71;100.00
81835;BME280;71272;52.166;4.498;2023-08-12T06:15:47;72668.78;;;-148.71;100.00
81835;BME280;71272;52.166;4.498;2023-08-12T06:18:12;101523.59;;;18.49;100.00
81835;BME280;71272;52.166;4.498;2023-08-12T06:20:38;101515.72;;;18.40;100.00
81835;BME280;71272;52.166;4.498;2023-08-12T06:23:03;101524.88;;;18.48;100.00
81835;BME280;71272;52.166;4.498;2023-08-12T06:25:28;101523.09;;;18.54;100.00
81835;BME280;71272;52.166;4.498;2023-08-12T06:27:54;101521.88;;;18.55;100.00
81835;BME280;71272;52.166;4.498;2023-08-12T06:33:42;101520.34;;;18.67;100.00
81835;BME280;71272;52.166;4.498;2023-08-12T06:36:07;101518.13;;;18.58;100.00
81835;BME280;71272;52.166;4.498;2023-08-12T06:41:54;101509.16;;;18.60;100.00
81835;BME280;71272;52.166;4.498;2023-08-12T06:44:23;101515.38;;;18.71;100.00
81835;BME280;71272;52.166;4.498;2023-08-12T06:46:49;101516.63;;;18.70;100.00
81835;BME280;71272;52.166;4.498;2023-08-12T06:49:15;101516.25;;;18.68;100.00
81835;BME280;71272;52.166;4.498;2023-08-12T06:51:40;101521.59;;;18.66;100.00
81835;BME280;71272;52.166;4.498;2023-08-12T06:54:05;101522.72;;;18.69;100.00
81835;BME280;71272;52.166;4.498;2023-08-12T06:56:31;101525.84;;;18.41;100.00
81835;BME280;71272;52.166;4.498;2023-08-12T06:58:56;101528.50;;;18.12;100.00
81835;BME280;71272;52.166;4.498;2023-08-12T07:01:21;101533.63;;;17.81;100.00
81835;BME280;71272;52.166;4.498;2023-08-12T07:03:47;101533.16;;;17.63;100.00
81835;BME280;71272;52.166;4.498;2023-08-12T07:06:12;101526.03;;;17.55;100.00
81835;BME280;71272;52.166;4.498;2023-08-12T07:08:38;101541.63;;;17.43;100.00
81835;BME280;71272;52.166;4.498;2023-08-12T07:11:03;101548.94;;;17.44;100.00
81835;BME280;71272;52.166;4.498;2023-08-12T07:13:29;101557.25;;;17.31;100.00
81835;BME280;71272;52.166;4.498;2023-08-12T07:15:55;101563.88;;;17.24;100.00
81835;BME280;71272;52.166;4.498;2023-08-12T07:18:20;101554.09;;;17.02;100.00
81835;BME280;71272;52.166;4.498;2023-08-12T07:20:48;101553.97;;;16.85;100.00
81835;BME280;71272;52.166;4.498;2023-08-12T07:23:23;101546.81;;;16.77;100.00
81835;BME280;71272;52.166;4.498;2023-08-12T07:25:48;101552.19;;;16.68;100.00
81835;BME280;71272;52.166;4.498;2023-08-12T07:28:14;101554.94;;;16.75;100.00
81835;BME280;71272;52.166;4.498;2023-08-12T07:30:40;101554.16;;;16.71;100.00
81835;BME280;71272;52.166;4.498;2023-08-12T07:33:05;101554.09;;;16.51;100.00
81835;BME280;71272;52.166;4.498;2023-08-12T07:35:31;101545.97;;;16.53;100.00
81835;BME280;71272;52.166;4.498;2023-08-12T07:37:56;101539.78;;;16.58;100.00
81835;BME280;71272;52.166;4.498;2023-08-12T07:40:21;101542.28;;;16.56;100.00
81835;BME280;71272;52.166;4.498;2023-08-12T07:42:47;101539.78;;;16.58;100.00
81835;BME280;71272;52.166;4.498;2023-08-12T07:45:14;101547.41;;;16.65;100.00
81835;BME280;71272;52.166;4.498;2023-08-12T07:47:40;101543.94;;;16.54;100.00
81835;BME280;71272;52.166;4.498;2023-08-12T07:50:08;101541.50;;;16.52;100.00
81835;BME280;71272;52.166;4.498;2023-08-12T07:52:34;101549.38;;;16.68;100.00
81835;BME280;71272;52.166;4.498;2023-08-12T07:55:01;101573.28;;;16.67;100.00
81835;BME280;71272;52.166;4.498;2023-08-12T07:57:27;101576.91;;;16.68;100.00
81835;BME280;71272;52.166;4.498;2023-08-12T07:59:52;101562.03;;;16.60;100.00
81835;BME280;71272;52.166;4.498;2023-08-12T08:02:18;101585.63;;;16.80;100.00
81835;BME280;71272;52.166;4.498;2023-08-12T08:04:43;101567.78;;;16.83;100.00
81835;BME280;71272;52.166;4.498;2023-08-12T08:07:12;101567.28;;;16.89;100.00
81835;BME280;71272;52.166;4.498;2023-08-12T08:09:37;101569.53;;;17.01;100.00
81835;BME280;71272;52.166;4.498;2023-08-12T08:12:03;101552.75;;;17.10;100.00
81835;BME280;71272;52.166;4.498;2023-08-12T08:14:29;101564.28;;;17.46;100.00
81835;BME280;71272;52.166;4.498;2023-08-12T08:16:54;101559.19;;;17.58;100.00
81835;BME280;71272;52.166;4.498;2023-08-12T08:19:20;101550.63;;;17.81;100.00
81835;BME280;71272;52.166;4.498;2023-08-12T08:21:45;101558.72;;;17.83;96.89
81835;BME280;71272;52.166;4.498;2023-08-12T08:24:13;101547.75;;;17.85;95.54
81835;BME280;71272;52.166;4.498;2023-08-12T08:26:39;101560.34;;;18.04;96.14
81835;BME280;71272;52.166;4.498;2023-08-12T08:29:10;101547.06;;;17.97;94.16
81835;BME280;71272;52.166;4.498;2023-08-12T08:31:36;101555.28;;;18.11;94.53
81835;BME280;71272;52.166;4.498;2023-08-12T08:34:04;101547.31;;;18.06;94.77
81835;BME280;71272;52.166;4.498;2023-08-12T08:36:30;101553.56;;;17.97;92.14
81835;BME280;71272;52.166;4.498;2023-08-12T08:38:55;101567.97;;;17.87;93.13
81835;BME280;71272;52.166;4.498;2023-08-12T08:41:22;101557.97;;;18.18;93.86
81835;BME280;71272;52.166;4.498;2023-08-12T08:44:02;101542.63;;;18.16;91.17
81835;BME280;71272;52.166;4.498;2023-08-12T08:46:29;101558.16;;;18.48;92.16
81835;BME280;71272;52.166;4.498;2023-08-12T08:48:58;101554.13;;;19.14;89.09
81835;BME280;71272;52.166;4.498;2023-08-12T08:51:25;101551.50;;;20.11;88.82
81835;BME280;71272;52.166;4.498;2023-08-12T08:53:51;101554.06;;;20.60;86.67
81835;BME280;71272;52.166;4.498;2023-08-12T08:59:41;101550.75;;;22.76;78.64
81835;BME280;71272;52.166;4.498;2023-08-12T09:02:18;101565.94;;;23.04;76.39
81835;BME280;71272;52.166;4.498;2023-08-12T09:04:46;101572.47;;;22.33;78.50
81835;BME280;71272;52.166;4.498;2023-08-12T09:07:12;101556.09;;;23.05;78.87
81835;BME280;71272;52.166;4.498;2023-08-12T09:09:48;101562.81;;;24.12;73.92
81835;BME280;71272;52.166;4.498;2023-08-12T09:12:15;101559.25;;;24.45;71.50
81835;BME280;71272;52.166;4.498;2023-08-12T09:14:42;101565.56;;;24.92;70.50
81835;BME280;71272;52.166;4.498;2023-08-12T09:17:08;101584.44;;;25.41;68.70
81835;BME280;71272;52.166;4.498;2023-08-12T09:19:34;101588.03;;;25.27;63.29
81835;BME280;71272;52.166;4.498;2023-08-12T09:21:59;101603.75;;;25.40;64.33
81835;BME280;71272;52.166;4.498;2023-08-12T09:24:28;101583.78;;;24.46;62.96
81835;BME280;71272;52.166;4.498;2023-08-12T09:26:55;101591.63;;;25.60;63.02
81835;BME280;71272;52.166;4.498;2023-08-12T09:29:30;101598.56;;;24.96;61.91
81835;BME280;71272;52.166;4.498;2023-08-12T09:32:11;101594.34;;;24.73;63.26
81835;BME280;71272;52.166;4.498;2023-08-12T09:34:49;101614.16;;;25.77;62.57
81835;BME280;71272;52.166;4.498;2023-08-12T09:37:19;101624.59;;;26.58;59.26
81835;BME280;71272;52.166;4.498;2023-08-12T09:39:46;101612.75;;;24.91;62.48
81835;BME280;71272;52.166;4.498;2023-08-12T09:42:15;101611.69;;;24.09;67.91
81835;BME280;71272;52.166;4.498;2023-08-12T09:44:41;101604.69;;;23.64;70.58
81835;BME280;71272;52.166;4.498;2023-08-12T09:47:07;101593.53;;;23.38;70.98
81835;BME280;71272;52.166;4.498;2023-08-12T09:49:36;101602.69;;;22.74;72.50
81835;BME280;71272;52.166;4.498;2023-08-12T09:52:05;101599.56;;;22.91;73.73
81835;BME280;71272;52.166;4.498;2023-08-12T09:54:32;101613.59;;;24.21;72.29
81835;BME280;71272;52.166;4.498;2023-08-12T09:56:59;101609.09;;;25.47;66.27
81835;BME280;71272;52.166;4.498;2023-08-12T09:59:34;101608.06;;;26.13;62.68
81835;BME280;71272;52.166;4.498;2023-08-12T10:02:00;101620.09;;;26.27;63.87
81835;BME280;71272;52.166;4.498;2023-08-12T10:04:39;101617.50;;;28.58;59.08
81835;BME280;71272;52.166;4.498;2023-08-12T10:07:06;101615.38;;;29.76;53.66
81835;BME280;71272;52.166;4.498;2023-08-12T10:09:33;101618.13;;;28.15;57.03
81835;BME280;71272;52.166;4.498;2023-08-12T10:12:02;101633.41;;;26.69;58.46
81835;BME280;71272;52.166;4.498;2023-08-12T10:14:28;101613.50;;;27.97;53.69
81835;BME280;71272;52.166;4.498;2023-08-12T10:16:55;101627.97;;;27.41;56.84
81835;BME280;71272;52.166;4.498;2023-08-12T10:19:20;101603.38;;;27.81;54.61
81835;BME280;71272;52.166;4.498;2023-08-12T10:21:48;101616.44;;;27.06;55.63
81835;BME280;71272;52.166;4.498;2023-08-12T10:24:17;101608.88;;;26.88;55.57
81835;BME280;71272;52.166;4.498;2023-08-12T10:26:43;101618.25;;;27.04;55.21
81835;BME280;71272;52.166;4.498;2023-08-12T10:29:09;101622.28;;;26.62;55.51
81835;BME280;71272;52.166;4.498;2023-08-12T10:31:34;101623.16;;;25.21;62.10
81835;BME280;71272;52.166;4.498;2023-08-12T10:34:00;101611.47;;;26.27;58.13
81835;BME280;71272;52.166;4.498;2023-08-12T10:36:26;101616.69;;;27.38;55.78
81835;BME280;71272;52.166;4.498;2023-08-12T10:38:55;101616.78;;;29.00;51.66
81835;BME280;71272;52.166;4.498;2023-08-12T10:41:23;101620.06;;;28.24;52.53
81835;BME280;71272;52.166;4.498;2023-08-12T10:44:02;101617.31;;;28.67;51.91
81835;BME280;71272;52.166;4.498;2023-08-12T10:46:34;101617.81;;;28.07;52.08
81835;BME280;71272;52.166;4.498;2023-08-12T10:49:10;101615.72;;;29.40;47.46
81835;BME280;71272;52.166;4.498;2023-08-12T10:54:13;101586.63;;;27.65;50.55
81835;BME280;71272;52.166;4.498;2023-08-12T11:02:30;101610.44;;;29.88;46.68
81835;BME280;71272;52.166;4.498;2023-08-12T11:05:04;101598.84;;;29.82;45.53
81835;BME280;71272;52.166;4.498;2023-08-12T11:08:01;101594.41;;;29.92;46.07
81835;BME280;71272;52.166;4.498;2023-08-12T11:10:31;101588.97;;;29.51;47.33
81835;BME280;71272;52.166;4.498;2023-08-12T11:12:57;101588.09;;;29.88;45.91
81835;BME280;71272;52.166;4.498;2023-08-12T11:15:43;101601.03;;;30.15;47.60
81835;BME280;71272;52.166;4.498;2023-08-12T11:18:23;101586.44;;;29.16;48.21
81835;BME280;71272;52.166;4.498;2023-08-12T11:20:49;101597.22;;;27.94;53.08
81835;BME280;71272;52.166;4.498;2023-08-12T11:23:16;101587.28;;;29.22;48.54
81835;BME280;71272;52.166;4.498;2023-08-12T11:25:43;101603.66;;;29.42;47.96
81835;BME280;71272;52.166;4.498;2023-08-12T11:28:14;101588.81;;;28.80;48.73
81835;BME280;71272;52.166;4.498;2023-08-12T11:30:43;101587.88;;;27.17;52.22
81835;BME280;71272;52.166;4.498;2023-08-12T11:33:08;101594.53;;;27.91;52.51
81835;BME280;71272;52.166;4.498;2023-08-12T11:35:34;101605.00;;;27.12;54.25
81835;BME280;71272;52.166;4.498;2023-08-12T11:37:59;101591.38;;;26.92;54.62
81835;BME280;71272;52.166;4.498;2023-08-12T11:40:26;101597.88;;;28.09;52.06
81835;BME280;71272;52.166;4.498;2023-08-12T11:42:55;101602.94;;;26.77;55.34
81835;BME280;71272;52.166;4.498;2023-08-12T11:45:24;101598.94;;;25.85;58.16
81835;BME280;71272;52.166;4.498;2023-08-12T11:47:54;101599.03;;;25.91;59.91
81835;BME280;71272;52.166;4.498;2023-08-12T11:50:21;101599.53;;;25.27;62.19
81835;BME280;71272;52.166;4.498;2023-08-12T11:52:47;101595.06;;;24.92;63.90
81835;BME280;71272;52.166;4.498;2023-08-12T11:55:12;101598.44;;;24.81;63.41
81835;BME280;71272;52.166;4.498;2023-08-12T11:57:40;101614.69;;;24.85;63.15
81835;BME280;71272;52.166;4.498;2023-08-12T12:00:08;101597.53;;;24.14;65.20
81835;BME280;71272;52.166;4.498;2023-08-12T12:02:53;101599.78;;;23.83;67.42
81835;BME280;71272;52.166;4.498;2023-08-12T12:05:21;101596.41;;;23.47;68.16
81835;BME280;71272;52.166;4.498;2023-08-12T12:07:48;101598.97;;;23.73;68.29
81835;BME280;71272;52.166;4.498;2023-08-12T12:10:21;101598.41;;;23.19;69.12
81835;BME280;71272;52.166;4.498;2023-08-12T12:12:47;101614.22;;;23.70;69.04
81835;BME280;71272;52.166;4.498;2023-08-12T12:15:14;101604.38;;;23.89;66.40
81835;BME280;71272;52.166;4.498;2023-08-12T12:17:45;101604.56;;;23.77;65.25
81835;BME280;71272;52.166;4.498;2023-08-12T12:20:11;101598.59;;;23.34;67.10
81835;BME280;71272;52.166;4.498;2023-08-12T12:22:37;101610.84;;;23.35;68.21
81835;BME280;71272;52.166;4.498;2023-08-12T12:25:10;101589.84;;;22.79;67.58
81835;BME280;71272;52.166;4.498;2023-08-12T12:27:39;101613.41;;;23.51;68.71
81835;BME280;71272;52.166;4.498;2023-08-12T12:30:11;101613.88;;;23.40;69.43
81835;BME280;71272;52.166;4.498;2023-08-12T12:32:36;101615.59;;;23.29;66.92
81835;BME280;71272;52.166;4.498;2023-08-12T12:35:05;101622.03;;;23.01;67.38
81835;BME280;71272;52.166;4.498;2023-08-12T12:37:35;101612.34;;;22.68;68.93
81835;BME280;71272;52.166;4.498;2023-08-12T12:40:04;101624.28;;;22.97;69.92
81835;BME280;71272;52.166;4.498;2023-08-12T12:45:10;101638.53;;;23.56;67.77
81835;BME280;71272;52.166;4.498;2023-08-12T12:47:36;101628.84;;;23.44;67.40
81835;BME280;71272;52.166;4.498;2023-08-12T12:50:02;101634.44;;;23.57;68.11
81835;BME280;71272;52.166;4.498;2023-08-12T12:52:28;101627.66;;;23.23;67.58
81835;BME280;71272;52.166;4.498;2023-08-12T12:54:56;101624.13;;;23.10;65.78
81835;BME280;71272;52.166;4.498;2023-08-12T12:57:43;101643.09;;;23.17;66.76
81835;BME280;71272;52.166;4.498;2023-08-12T13:00:09;101622.44;;;23.31;63.64
81835;BME280;71272;52.166;4.498;2023-08-12T13:02:37;101609.22;;;23.15;63.96
81835;BME280;71272;52.166;4.498;2023-08-12T13:05:02;101631.03;;;22.91;65.84
81835;BME280;71272;52.166;4.498;2023-08-12T13:07:31;101626.88;;;23.32;64.77
81835;BME280;71272;52.166;4.498;2023-08-12T13:09:56;101626.75;;;23.45;64.44
81835;BME280;71272;52.166;4.498;2023-08-12T13:12:22;101626.69;;;22.77;65.31
81835;BME280;71272;52.166;4.498;2023-08-12T13:14:47;101632.22;;;22.71;64.53
81835;BME280;71272;52.166;4.498;2023-08-12T13:17:16;101635.66;;;22.57;64.39
81835;BME280;71272;52.166;4.498;2023-08-12T13:19:41;101638.91;;;22.46;62.97